Time;durP1;ratioP1;P1;durP2;ratioP2;P2;SDS_P1;SDS_P2;PMS_P1;PMS_P2;Temp;Humidity;BMP_temperature;BMP_pressure;BME280_temperature;BME280_humidity;BME280_pressure;Samples;Min_cycle;Max_cycle;Signal;HPM_P1;HPM_P2
2022/06/15 00:08:05;;;;;;;5.63;2.40;;;17.80;59.30;;;;;;20917536;28;20243;-66
2022/06/15 00:18:08;;;;;;;5.47;2.23;;;17.50;59.80;;;;;;20916374;28;20215;-65
2022/06/15 00:28:10;;;;;;;2.60;1.97;;;17.30;60.30;;;;;;20913255;28;20718;-66
2022/06/15 00:38:11;;;;;;;3.00;2.10;;;17.30;61.00;;;;;;20914728;28;20267;-66
2022/06/15 00:48:13;;;;;;;2.60;2.10;;;17.00;61.30;;;;;;20914006;28;20285;-66
2022/06/15 00:58:15;;;;;;;3.00;2.27;;;16.90;61.80;;;;;;20925945;28;20208;-67
2022/06/15 01:08:54;;;;;;;2.57;2.00;;;16.80;62.40;;;;;;20994863;28;20235;-65
2022/06/15 01:19:07;;;;;;;3.43;2.23;;;16.50;63.10;;;;;;20996106;28;20206;-66
2022/06/15 01:32:55;;;;;;;4.10;2.30;;;16.30;64.20;;;;;;20983852;28;20579;-67
2022/06/15 01:43:07;;;;;;;6.20;2.50;;;16.20;64.70;;;;;;20984069;28;20206;-66
2022/06/15 01:53:13;;;;;;;6.20;2.53;;;16.10;65.10;;;;;;20982402;28;20612;-65
2022/06/15 02:03:25;;;;;;;2.80;2.37;;;16.10;65.70;;;;;;21036826;28;20276;-66
2022/06/15 02:13:56;;;;;;;4.77;2.30;;;16.00;66.10;;;;;;21065999;28;20207;-66
2022/06/15 02:24:00;;;;;;;3.63;2.40;;;15.90;66.70;;;;;;21059922;28;20304;-67
2022/06/15 02:35:52;;;;;;;3.57;2.50;;;15.70;67.50;;;;;;20984667;28;20585;-68
2022/06/15 02:45:57;;;;;;;4.07;2.60;;;15.70;67.90;;;;;;20983226;28;20229;-70
2022/06/15 02:56:08;;;;;;;3.73;2.97;;;15.50;68.40;;;;;;20981108;28;20207;-65
2022/06/15 03:06:14;;;;;;;4.13;2.40;;;15.60;68.70;;;;;;21060401;28;20226;-66
2022/06/15 03:16:16;;;;;;;6.03;2.80;;;;;;;;;;21064512;28;20218;-68
2022/06/15 03:26:19;;;;;;;2.93;2.20;;;;;;;;;;21062922;28;20241;-66
2022/06/15 03:36:21;;;;;;;5.33;2.73;;;15.30;69.60;;;;;;21063650;28;20268;-65
2022/06/15 03:46:23;;;;;;;2.67;2.43;;;;;;;;;;21011780;28;20714;-64
2022/06/15 03:56:48;;;;;;;7.10;2.90;;;15.20;70.80;;;;;;21010418;28;20238;-68
2022/06/15 04:06:50;;;;;;;3.63;2.50;;;14.20;70.10;;;;;;20843903;28;20243;-68
2022/06/15 04:16:56;;;;;;;6.40;2.70;;;;;;;;;;20880321;28;20223;-70
2022/06/15 04:26:59;;;;;;;6.97;2.70;;;15.40;71.60;;;;;;20848756;28;20339;-70
2022/06/15 04:37:01;;;;;;;4.50;3.00;;;;;;;;;;20844723;28;20264;-66
2022/06/15 04:48:14;;;;;;;10.17;3.37;;;;;;;;;;21024421;28;20576;-66
2022/06/15 04:58:16;;;;;;;5.37;2.93;;;;;;;;;;21024581;28;20293;-65
2022/06/15 05:08:18;;;;;;;17.10;3.83;;;16.10;72.40;;;;;;21088948;28;20213;-65
2022/06/15 05:18:20;;;;;;;6.83;3.60;;;;;;;;;;21106001;28;20295;-71
2022/06/15 05:28:21;;;;;;;7.70;4.17;;;16.60;71.90;;;;;;21090429;28;20206;-68
2022/06/15 05:38:23;;;;;;;8.87;3.97;;;16.70;71.30;;;;;;21084354;28;20205;-68
2022/06/15 05:48:25;;;;;;;7.63;3.30;;;16.80;71.90;;;;;;21062370;28;20207;-66
2022/06/15 05:58:26;;;;;;;4.57;3.10;;;17.10;71.10;;;;;;20998713;28;20208;-68
2022/06/15 06:08:28;;;;;;;7.03;2.87;;;17.40;70.20;;;;;;20921981;28;20681;-68
2022/06/15 06:18:30;;;;;;;6.87;2.80;;;17.60;69.50;;;;;;20919318;28;20265;-67
2022/06/15 06:28:34;;;;;;;6.60;3.13;;;17.90;68.80;;;;;;20919120;28;20282;-67
2022/06/15 06:38:36;;;;;;;11.43;3.20;;;18.40;68.20;;;;;;20916980;28;20715;-66
2022/06/15 06:48:38;;;;;;;6.87;3.20;;;18.70;67.40;;;;;;20917809;28;20566;-69
2022/06/15 06:58:39;;;;;;;5.87;3.60;;;19.10;67.20;;;;;;20930596;28;20249;-70
2022/06/15 07:08:41;;;;;;;6.37;3.47;;;19.40;67.00;;;;;;20998193;28;20221;-67
2022/06/15 07:18:44;;;;;;;7.30;3.57;;;19.70;66.70;;;;;;20998576;28;20628;-68
2022/06/15 07:28:46;;;;;;;6.40;3.03;;;19.90;66.40;;;;;;20997696;28;20215;-69
2022/06/15 07:38:52;;;;;;;7.43;3.80;;;20.30;66.20;;;;;;20996214;28;20238;-69
2022/06/15 07:59:15;;;;;;;42.43;7.10;;;20.90;65.60;;;;;;20974416;28;20243;-68
2022/06/15 08:09:17;;;;;;;6.67;3.80;;;21.20;65.20;;;;;;20910661;28;20612;-70
2022/06/15 08:19:19;;;;;;;9.43;4.37;;;21.50;64.10;;;;;;20913721;28;20301;-70
2022/06/15 08:29:21;;;;;;;7.17;3.77;;;21.80;63.30;;;;;;20918521;28;20223;-70
2022/06/15 08:39:23;;;;;;;8.63;3.90;;;22.10;62.30;;;;;;20957354;28;20327;-70
2022/06/15 08:49:52;;;;;;;6.80;3.87;;;22.40;61.80;;;;;;20911434;28;20204;-70
2022/06/15 09:00:04;;;;;;;8.27;3.97;;;22.60;61.00;;;;;;20934864;28;20280;-71
2022/06/15 09:10:48;;;;;;;9.10;4.07;;;22.90;60.30;;;;;;20991671;28;20202;-69
2022/06/15 09:21:05;;;;;;;8.77;4.13;;;23.10;59.80;;;;;;20992733;28;20238;-69
2022/06/15 09:31:11;;;;;;;5.40;3.90;;;23.40;59.20;;;;;;21000386;28;20203;-68
2022/06/15 09:41:23;;;;;;;9.63;3.30;;;23.60;58.20;;;;;;21006337;28;20246;-68
2022/06/15 09:51:49;;;;;;;5.03;3.50;;;23.90;57.10;;;;;;21006070;28;20229;-68
2022/06/15 10:01:51;;;;;;;9.17;3.90;;;24.10;55.60;;;;;;20963165;28;20281;-68
2022/06/15 10:22:40;;;;;;;4.27;3.10;;;24.50;53.90;;;;;;20920034;28;20241;-69
2022/06/15 10:33:02;;;;;;;5.80;3.07;;;24.50;52.90;;;;;;20921513;28;20740;-69
2022/06/15 10:43:12;;;;;;;13.13;3.60;;;24.70;52.10;;;;;;20918610;28;20239;-68
2022/06/15 10:53:52;;;;;;;7.43;3.23;;;24.90;51.10;;;;;;20918932;28;20203;-69
2022/06/15 11:04:10;;;;;;;6.20;4.60;;;25.10;50.30;;;;;;20977096;28;20235;-69
2022/06/15 11:14:26;;;;;;;8.83;3.57;;;25.10;49.30;;;;;;21000321;28;20207;-69
2022/06/15 11:24:59;;;;;;;4.27;3.13;;;25.30;48.80;;;;;;20999438;28;20231;-66
2022/06/15 11:35:40;;;;;;;5.03;4.10;;;25.50;48.30;;;;;;20999693;28;20222;-70
2022/06/15 11:46:09;;;;;;;6.03;2.97;;;25.60;47.70;;;;;;20987090;28;20329;-68
2022/06/15 11:56:15;;;;;;;5.13;2.80;;;25.80;46.90;;;;;;20994194;28;20203;-71
2022/06/15 12:06:36;;;;;;;4.63;2.67;;;26.00;46.10;;;;;;20916810;28;20228;-70
2022/06/15 12:16:45;;;;;;;3.83;2.77;;;26.30;45.10;;;;;;20908761;28;20258;-70
2022/06/15 12:27:04;;;;;;;8.53;2.03;;;26.70;44.00;;;;;;20910772;28;20273;-71
2022/06/15 12:37:30;;;;;;;2.90;1.97;;;27.00;42.60;;;;;;20912005;28;20652;-71
2022/06/15 12:47:37;;;;;;;3.57;2.20;;;27.20;41.50;;;;;;20911987;28;20243;-71
2022/06/15 12:57:56;;;;;;;6.70;2.20;;;27.30;40.50;;;;;;20933268;28;20212;-71
2022/06/15 13:08:20;;;;;;;6.33;5.20;;;27.30;40.90;;;;;;20977162;28;20235;-73
2022/06/15 13:18:51;;;;;;;9.07;2.77;;;27.30;40.70;;;;;;21005656;28;20204;-79
2022/06/15 13:29:03;;;;;;;2.90;2.30;;;27.30;40.50;;;;;;20940025;28;20223;-69
2022/06/15 13:39:45;;;;;;;8.73;2.57;;;27.30;40.30;;;;;;21007880;28;20234;-70
2022/06/15 13:49:50;;;;;;;4.17;2.70;;;27.40;39.80;;;;;;21006352;28;20211;-71
2022/06/15 14:00:09;;;;;;;2.65;2.30;;;27.50;39.20;;;;;;21006525;28;20239;-70
2022/06/15 14:10:38;;;;;;;3.40;2.03;;;27.50;38.70;;;;;;20937972;28;20438;-71
2022/06/15 14:20:45;;;;;;;5.20;2.20;;;27.70;38.30;;;;;;20965960;28;20458;-65
2022/06/15 14:30:57;;;;;;;2.97;2.00;;;27.80;38.20;;;;;;20966794;28;20257;-63
2022/06/15 14:41:20;;;;;;;6.43;2.10;;;27.90;37.90;;;;;;20922335;28;20243;-67
2022/06/15 14:51:28;;;;;;;3.78;1.95;;;28.00;37.80;;;;;;20989083;28;20623;-69
2022/06/15 15:01:30;;;;;;;2.67;2.17;;;28.20;37.50;;;;;;21025855;28;20231;-64
2022/06/15 15:11:36;;;;;;;3.65;2.10;;;28.30;37.70;;;;;;21026845;28;20212;-64
2022/06/15 15:21:42;;;;;;;3.78;3.17;;;28.40;36.70;;;;;;20981450;28;20231;-64
2022/06/15 15:42:08;;;;;;;4.32;2.60;;;28.50;34.30;;;;;;20939962;28;20258;-64
2022/06/15 15:52:15;;;;;;;7.93;2.55;;;28.70;34.50;;;;;;20926468;28;20715;-65
2022/06/15 16:02:22;;;;;;;3.15;2.33;;;29.60;34.10;;;;;;20924854;28;20695;-65
2022/06/15 16:12:31;;;;;;;5.47;2.20;;;30.40;33.80;;;;;;20922890;28;20208;-64
2022/06/15 16:22:34;;;;;;;25.60;2.20;;;31.40;33.30;;;;;;20927918;28;20235;-67
2022/06/15 16:32:36;;;;;;;2.70;2.20;;;31.20;33.10;;;;;;20959174;28;20254;-65
2022/06/15 16:42:38;;;;;;;3.70;2.20;;;30.00;33.40;;;;;;20939805;28;20230;-66
2022/06/15 16:52:40;;;;;;;4.57;2.20;;;29.10;34.00;;;;;;20995212;28;20261;-67
2022/06/15 17:02:42;;;;;;;2.80;2.22;;;28.70;34.60;;;;;;20943906;28;20659;-71
2022/06/15 17:12:44;;;;;;;5.57;2.45;;;28.60;35.10;;;;;;20908868;28;20436;-71
2022/06/15 17:22:49;;;;;;;3.40;2.28;;;28.90;35.60;;;;;;20910537;28;20236;-69
2022/06/15 17:32:55;;;;;;;5.00;2.20;;;28.50;36.30;;;;;;20929341;28;20199;-69
2022/06/15 17:42:57;;;;;;;4.85;2.42;;;28.30;38.80;;;;;;20991088;28;20293;-66
2022/06/15 17:53:00;;;;;;;5.72;2.10;;;29.10;39.90;;;;;;20998938;28;20203;-75
2022/06/15 18:03:03;;;;;;;7.97;2.22;;;28.60;41.10;;;;;;20960899;28;20639;-69
2022/06/15 18:13:05;;;;;;;4.73;2.20;;;28.30;42.50;;;;;;20977579;28;20309;-74
2022/06/15 18:23:12;;;;;;;11.67;2.60;;;27.60;43.10;;;;;;20927597;28;20683;-72
2022/06/15 18:33:15;;;;;;;3.53;2.50;;;27.20;43.70;;;;;;20978397;28;20289;-70
2022/06/15 18:53:38;;;;;;;9.67;2.47;;;26.40;45.40;;;;;;21002342;28;20237;-70
2022/06/15 19:03:40;;;;;;;13.07;3.23;;;26.00;46.30;;;;;;20971597;28;20265;-68
2022/06/15 19:13:42;;;;;;;4.20;3.00;;;25.80;47.20;;;;;;20929267;28;20212;-68
2022/06/15 19:23:44;;;;;;;7.27;3.17;;;25.50;47.40;;;;;;20984791;28;20235;-69
2022/06/15 19:33:48;;;;;;;4.07;3.20;;;25.40;47.70;;;;;;20963852;28;20684;-68
2022/06/15 19:43:51;;;;;;;7.43;3.10;;;25.20;48.80;;;;;;20949592;28;20244;-70
2022/06/15 19:53:53;;;;;;;11.87;3.27;;;24.90;49.70;;;;;;20914643;28;20253;-70
2022/06/15 20:03:55;;;;;;;4.90;3.33;;;24.70;50.60;;;;;;20979407;28;20231;-70
2022/06/15 20:14:00;;;;;;;6.23;3.67;;;24.50;51.50;;;;;;20906968;28;20204;-70
2022/06/15 20:24:06;;;;;;;4.43;3.60;;;24.30;52.10;;;;;;20906744;28;20309;-68
2022/06/15 20:34:08;;;;;;;7.43;4.00;;;24.00;52.90;;;;;;20947281;28;20198;-67
2022/06/15 20:44:15;;;;;;;15.67;4.57;;;23.90;54.00;;;;;;20988511;28;20642;-68
2022/06/15 20:54:23;;;;;;;13.27;4.93;;;23.50;55.30;;;;;;20987944;28;20247;-64
2022/06/15 21:04:27;;;;;;;8.17;4.07;;;23.30;56.10;;;;;;20987716;28;20284;-67
2022/06/15 21:24:50;;;;;;;6.77;3.93;;;22.70;58.10;;;;;;20992436;28;20234;-68
2022/06/15 21:34:51;;;;;;;5.63;3.80;;;22.60;58.40;;;;;;20955431;28;20207;-71
2022/06/15 21:45:05;;;;;;;7.90;3.90;;;22.40;59.30;;;;;;20919893;28;20250;-65
2022/06/15 21:55:07;;;;;;;9.07;4.47;;;22.20;60.00;;;;;;20918548;28;20203;-71
2022/06/15 22:05:09;;;;;;;5.83;3.67;;;22.10;60.60;;;;;;20917301;28;20636;-71
2022/06/15 22:15:11;;;;;;;8.47;3.60;;;21.90;61.10;;;;;;20916870;28;20264;-70
2022/06/15 22:25:14;;;;;;;8.30;3.90;;;21.80;61.60;;;;;;20915832;28;20312;-70
2022/06/15 22:35:17;;;;;;;7.60;3.80;;;21.70;61.90;;;;;;20966559;28;20198;-70
2022/06/15 22:45:21;;;;;;;6.43;3.70;;;21.50;62.50;;;;;;21004053;28;20277;-70
2022/06/15 22:55:23;;;;;;;7.27;3.67;;;21.40;63.30;;;;;;20945481;28;20239;-71
2022/06/15 23:05:25;;;;;;;5.83;3.67;;;21.30;63.90;;;;;;20977866;28;20232;-70
2022/06/15 23:15:28;;;;;;;8.97;3.67;;;21.10;64.20;;;;;;20921312;28;20204;-71
2022/06/15 23:25:29;;;;;;;5.03;3.90;;;21.00;64.80;;;;;;20917362;28;20636;-69
2022/06/15 23:35:31;;;;;;;6.37;4.20;;;20.90;65.40;;;;;;20916337;28;20265;-71
2022/06/15 23:55:53;;;;;;;11.50;4.20;;;20.60;66.50;;;;;;20915239;28;20215;-70
